Time;durP1;ratioP1;P1;durP2;ratioP2;P2;SDS_P1;SDS_P2;PMS_P1;PMS_P2;Temp;Humidity;BMP_temperature;BMP_pressure;BME280_temperature;BME280_humidity;BME280_pressure;Samples;Min_cycle;Max_cycle;Signal;HPM_P1;HPM_P2
2021/07/09 04:02:26;;;;;;;7.70;7.10;;;16.40;99.90;;;;;;5059164;23;20622;-66
2021/07/09 04:04:53;;;;;;;8.37;6.80;;;16.40;99.90;;;;;;4966622;28;20440;-66
2021/07/09 04:07:19;;;;;;;8.00;7.30;;;16.30;99.90;;;;;;4966902;28;20484;-66
2021/07/09 04:09:46;;;;;;;7.90;7.30;;;16.30;99.90;;;;;;4968347;28;20460;-66
2021/07/09 04:12:13;;;;;;;9.60;8.13;;;16.20;99.90;;;;;;4967049;28;20487;-66
2021/07/09 04:14:39;;;;;;;8.40;7.80;;;16.30;99.90;;;;;;4961480;28;20455;-65
2021/07/09 04:17:06;;;;;;;8.50;7.70;;;16.30;99.90;;;;;;4959089;28;20827;-66
2021/07/09 04:19:34;;;;;;;8.87;8.03;;;16.30;99.90;;;;;;4959419;28;20466;-66
2021/07/09 04:22:01;;;;;;;7.53;7.00;;;16.30;99.90;;;;;;4959572;28;20844;-66
2021/07/09 04:24:28;;;;;;;10.53;8.03;;;16.30;99.90;;;;;;4959451;28;20456;-67
2021/07/09 04:26:54;;;;;;;8.07;7.33;;;16.30;99.90;;;;;;4958787;28;20455;-66
2021/07/09 04:29:21;;;;;;;9.63;7.43;;;16.40;99.90;;;;;;4957973;28;20452;-66
2021/07/09 04:31:48;;;;;;;8.70;8.00;;;16.40;99.90;;;;;;4958899;28;20487;-66
2021/07/09 04:34:15;;;;;;;8.37;7.57;;;16.40;99.90;;;;;;4964981;28;20460;-66
2021/07/09 04:36:43;;;;;;;8.00;7.30;;;16.30;99.90;;;;;;4964977;28;20459;-65
2021/07/09 04:39:10;;;;;;;8.73;7.93;;;16.30;99.90;;;;;;4963479;28;20475;-65
2021/07/09 04:41:37;;;;;;;9.60;8.70;;;16.30;99.90;;;;;;4964294;28;20506;-66
2021/07/09 04:44:04;;;;;;;9.63;8.40;;;16.30;99.90;;;;;;4963443;28;20456;-65
2021/07/09 04:46:31;;;;;;;9.67;8.70;;;16.30;99.90;;;;;;4963354;28;20456;-65
2021/07/09 04:48:57;;;;;;;9.73;8.60;;;16.30;99.90;;;;;;4963486;28;21013;-66
2021/07/09 04:51:24;;;;;;;9.27;8.43;;;16.30;99.90;;;;;;4963228;28;20484;-66
2021/07/09 04:53:52;;;;;;;9.03;8.10;;;16.20;99.90;;;;;;4963958;28;20464;-66
2021/07/09 04:56:19;;;;;;;10.00;8.50;;;16.30;99.90;;;;;;4963143;28;20483;-65
2021/07/09 04:58:45;;;;;;;9.57;8.10;;;16.20;99.90;;;;;;4963650;28;20857;-66
2021/07/09 05:01:13;;;;;;;8.57;7.87;;;16.20;99.90;;;;;;4959429;28;20560;-65
2021/07/09 05:03:39;;;;;;;8.67;7.80;;;16.20;99.90;;;;;;4958051;28;20499;-65
2021/07/09 05:06:06;;;;;;;9.47;8.00;;;16.20;99.90;;;;;;4957813;28;20475;-65
2021/07/09 05:08:33;;;;;;;11.00;7.73;;;16.20;99.90;;;;;;4957217;28;20487;-65
2021/07/09 05:11:01;;;;;;;9.30;7.63;;;16.20;99.90;;;;;;4957096;28;20482;-65
2021/07/09 05:13:27;;;;;;;8.03;7.23;;;16.20;99.90;;;;;;4956226;28;20817;-65
2021/07/09 05:15:54;;;;;;;8.00;7.30;;;16.20;99.90;;;;;;4956869;28;20468;-65
2021/07/09 05:18:21;;;;;;;7.80;7.10;;;16.20;99.90;;;;;;4957401;28;20452;-65
2021/07/09 05:20:47;;;;;;;9.23;6.80;;;16.20;99.90;;;;;;4957233;28;20475;-65
2021/07/09 05:23:14;;;;;;;7.40;6.70;;;16.20;99.90;;;;;;4957190;28;20460;-66
2021/07/09 05:25:41;;;;;;;7.80;7.10;;;16.20;99.90;;;;;;4956573;28;20966;-66
2021/07/09 05:28:10;;;;;;;7.50;6.90;;;16.20;99.90;;;;;;4957089;28;20896;-65
2021/07/09 05:30:36;;;;;;;8.00;7.00;;;16.30;99.90;;;;;;4956686;28;20483;-65
2021/07/09 05:33:03;;;;;;;10.80;7.30;;;16.30;99.90;;;;;;4956865;28;20969;-65
2021/07/09 05:35:31;;;;;;;8.37;7.40;;;16.30;99.90;;;;;;4957155;28;20801;-66
2021/07/09 05:37:58;;;;;;;7.23;6.73;;;16.30;99.90;;;;;;4956895;28;20459;-65
2021/07/09 05:40:25;;;;;;;7.30;6.60;;;16.30;99.90;;;;;;4956851;28;20455;-66
2021/07/09 05:42:51;;;;;;;8.23;7.43;;;16.40;99.90;;;;;;4956769;28;20455;-67
2021/07/09 05:45:20;;;;;;;10.03;7.07;;;16.30;99.90;;;;;;4961126;28;20478;-66
2021/07/09 05:47:47;;;;;;;7.67;7.07;;;16.30;99.90;;;;;;4957063;28;20486;-65
2021/07/09 05:50:14;;;;;;;6.80;6.30;;;16.30;99.90;;;;;;4956842;28;20451;-67
2021/07/09 05:52:41;;;;;;;7.70;7.20;;;16.30;99.90;;;;;;4956590;28;20459;-65
2021/07/09 05:55:09;;;;;;;8.33;7.60;;;16.20;99.90;;;;;;4957231;28;20459;-65
2021/07/09 05:57:36;;;;;;;8.63;7.93;;;16.30;99.90;;;;;;4957059;28;20455;-65
2021/07/09 06:00:02;;;;;;;8.83;7.70;;;16.30;99.90;;;;;;4956745;28;20459;-66
2021/07/09 06:02:30;;;;;;;9.27;7.90;;;16.30;99.90;;;;;;4956437;28;20494;-66
2021/07/09 06:04:57;;;;;;;8.57;7.97;;;16.20;99.90;;;;;;4956804;28;20464;-66
2021/07/09 06:07:24;;;;;;;8.63;7.93;;;16.30;99.90;;;;;;4956589;28;20435;-65
2021/07/09 06:09:51;;;;;;;8.37;7.77;;;16.30;99.90;;;;;;4956467;28;20462;-65
2021/07/09 06:12:17;;;;;;;9.67;8.87;;;16.30;99.90;;;;;;4956456;28;20482;-65
2021/07/09 06:14:44;;;;;;;9.27;8.27;;;16.30;99.90;;;;;;4956726;28;20490;-66
2021/07/09 06:17:11;;;;;;;9.27;8.50;;;16.30;99.90;;;;;;4957037;28;20462;-67
2021/07/09 06:19:39;;;;;;;8.80;8.10;;;16.40;99.90;;;;;;4956303;28;20859;-66
2021/07/09 06:22:06;;;;;;;8.50;7.53;;;16.50;99.90;;;;;;4956093;28;21061;-65
2021/07/09 06:24:33;;;;;;;9.83;9.03;;;16.50;99.90;;;;;;4957876;28;20464;-66
2021/07/09 06:26:59;;;;;;;9.07;8.27;;;16.50;99.90;;;;;;4960393;28;20459;-66
2021/07/09 06:29:26;;;;;;;9.83;8.90;;;16.50;99.90;;;;;;4960498;28;20490;-66
2021/07/09 06:31:53;;;;;;;10.40;9.40;;;16.50;99.90;;;;;;4960232;28;20479;-65
2021/07/09 06:34:20;;;;;;;10.10;9.03;;;16.40;99.90;;;;;;4960684;28;20459;-66
2021/07/09 06:36:48;;;;;;;9.97;9.00;;;16.50;99.90;;;;;;4960439;28;20463;-67
2021/07/09 06:39:14;;;;;;;9.40;8.60;;;16.50;99.90;;;;;;4960284;28;20451;-66
2021/07/09 06:41:41;;;;;;;9.97;9.07;;;16.50;99.90;;;;;;4959938;28;20475;-66
2021/07/09 06:44:08;;;;;;;11.10;9.53;;;16.50;99.90;;;;;;4960918;28;20463;-67
2021/07/09 06:46:35;;;;;;;9.70;8.90;;;16.50;99.90;;;;;;4972134;28;20439;-67
2021/07/09 06:49:01;;;;;;;9.30;8.50;;;16.50;99.90;;;;;;4978972;28;21057;-66
2021/07/09 06:51:28;;;;;;;11.43;10.33;;;16.60;99.90;;;;;;4979721;28;20482;-67
2021/07/09 06:53:56;;;;;;;11.10;10.00;;;16.60;99.90;;;;;;4971474;28;20463;-67
2021/07/09 06:56:23;;;;;;;9.40;8.50;;;16.60;99.90;;;;;;4960455;28;20857;-67
2021/07/09 06:58:50;;;;;;;9.73;8.93;;;16.70;99.90;;;;;;4960856;28;20456;-66
2021/07/09 07:01:16;;;;;;;9.83;8.93;;;16.80;99.90;;;;;;4959465;28;21072;-66
2021/07/09 07:03:43;;;;;;;10.73;9.83;;;16.90;99.90;;;;;;4959827;28;20481;-66
2021/07/09 07:06:11;;;;;;;11.00;8.37;;;16.90;99.90;;;;;;4959447;28;20459;-65
2021/07/09 07:08:38;;;;;;;9.20;8.40;;;17.00;99.90;;;;;;4959493;28;20464;-66
2021/07/09 07:11:07;;;;;;;9.83;8.07;;;17.00;99.90;;;;;;4959301;28;20554;-65
2021/07/09 07:13:33;;;;;;;9.20;8.27;;;17.00;99.90;;;;;;4959583;28;20464;-66
2021/07/09 07:16:00;;;;;;;9.33;8.60;;;17.10;99.90;;;;;;4959831;28;20467;-65
2021/07/09 07:18:27;;;;;;;9.07;8.37;;;17.20;99.90;;;;;;4959537;28;20452;-65
2021/07/09 07:20:54;;;;;;;10.67;9.57;;;17.20;99.90;;;;;;4959131;28;20534;-66
2021/07/09 07:23:20;;;;;;;10.13;9.20;;;17.30;99.90;;;;;;4958686;28;20495;-66
2021/07/09 07:25:48;;;;;;;10.20;9.30;;;17.40;99.90;;;;;;4959217;28;20459;-66
2021/07/09 07:28:17;;;;;;;9.57;8.70;;;17.40;99.90;;;;;;4959620;28;20479;-66
2021/07/09 07:30:43;;;;;;;8.23;7.63;;;17.50;99.90;;;;;;4959513;28;20475;-66
2021/07/09 07:33:10;;;;;;;9.53;8.73;;;17.60;99.90;;;;;;4959144;28;20518;-65
2021/07/09 07:35:37;;;;;;;9.37;8.60;;;17.50;99.90;;;;;;4958830;28;20459;-66
2021/07/09 07:38:05;;;;;;;9.10;8.40;;;17.50;99.90;;;;;;4958981;28;20463;-66
2021/07/09 07:40:33;;;;;;;9.57;8.87;;;17.60;99.90;;;;;;4958603;28;20887;-66
2021/07/09 07:42:59;;;;;;;9.10;8.50;;;17.60;99.90;;;;;;4958509;28;20973;-66
2021/07/09 07:45:28;;;;;;;10.00;8.40;;;17.60;99.90;;;;;;4959868;28;20455;-66
2021/07/09 07:47:55;;;;;;;9.30;8.40;;;17.70;99.90;;;;;;4958722;28;20464;-66
2021/07/09 07:50:22;;;;;;;11.13;8.87;;;17.70;99.90;;;;;;4959511;28;20459;-65
2021/07/09 07:52:48;;;;;;;9.80;8.63;;;17.80;99.90;;;;;;4958875;28;20498;-66
2021/07/09 07:55:16;;;;;;;9.50;8.00;;;17.80;99.90;;;;;;4958798;28;20459;-66
2021/07/09 07:57:43;;;;;;;10.07;9.20;;;17.90;99.90;;;;;;4958754;28;20463;-66
2021/07/09 08:00:12;;;;;;;9.70;8.70;;;18.00;99.90;;;;;;4959953;28;20455;-65
2021/07/09 08:02:40;;;;;;;8.63;8.07;;;18.00;99.90;;;;;;4958862;28;20451;-67
2021/07/09 08:05:08;;;;;;;10.30;9.50;;;18.00;99.90;;;;;;4958278;28;20451;-66
2021/07/09 08:07:35;;;;;;;9.17;8.33;;;18.10;99.90;;;;;;4958418;28;20456;-66
2021/07/09 08:10:01;;;;;;;9.90;8.90;;;18.20;99.90;;;;;;4958479;28;21044;-66
2021/07/09 08:12:28;;;;;;;10.43;7.90;;;18.20;99.90;;;;;;4958939;28;20498;-66
2021/07/09 08:14:55;;;;;;;9.70;8.90;;;18.30;99.90;;;;;;4959005;28;20455;-66
2021/07/09 08:17:22;;;;;;;9.73;8.90;;;18.40;99.90;;;;;;4958805;28;20455;-66
2021/07/09 08:19:50;;;;;;;9.57;8.67;;;18.50;99.90;;;;;;4959006;28;20451;-66
2021/07/09 08:22:16;;;;;;;7.90;7.30;;;18.40;99.90;;;;;;4958970;28;20502;-67
2021/07/09 08:24:43;;;;;;;9.30;8.40;;;18.40;99.90;;;;;;4958384;28;20459;-67
2021/07/09 08:27:10;;;;;;;9.60;8.80;;;18.50;99.90;;;;;;4958390;28;20514;-67
2021/07/09 08:29:37;;;;;;;7.83;7.10;;;18.50;99.90;;;;;;4958654;28;20475;-66
2021/07/09 08:32:04;;;;;;;8.50;7.70;;;18.50;99.90;;;;;;4958580;28;20502;-66
2021/07/09 08:34:31;;;;;;;8.80;8.20;;;18.50;99.90;;;;;;4957904;28;20455;-66
2021/07/09 08:36:59;;;;;;;8.30;7.70;;;18.60;99.90;;;;;;4958088;28;20470;-67
2021/07/09 08:39:26;;;;;;;10.60;7.80;;;18.70;99.90;;;;;;4958231;28;20451;-66
2021/07/09 08:41:55;;;;;;;8.00;7.30;;;18.80;99.90;;;;;;4958174;28;20506;-67
2021/07/09 08:44:22;;;;;;;8.00;7.40;;;19.00;99.90;;;;;;4958632;28;20455;-66
2021/07/09 08:46:49;;;;;;;7.87;7.27;;;19.20;99.90;;;;;;4958183;28;20452;-66
2021/07/09 08:49:19;;;;;;;8.20;7.47;;;19.50;99.90;;;;;;4956873;28;20494;-66
2021/07/09 08:51:46;;;;;;;8.23;7.43;;;19.70;99.90;;;;;;4957926;28;20483;-66
2021/07/09 08:54:16;;;;;;;7.80;7.07;;;20.00;99.90;;;;;;4957829;28;20819;-67
2021/07/09 08:56:43;;;;;;;7.20;6.80;;;20.20;99.90;;;;;;4957671;28;20467;-66
2021/07/09 08:59:10;;;;;;;7.37;6.67;;;20.40;99.90;;;;;;4957585;28;20458;-66
2021/07/09 09:01:48;;;;;;;7.07;6.57;;;20.60;99.90;;;;;;4957074;28;20483;-66
2021/07/09 09:04:15;;;;;;;8.37;7.60;;;20.80;99.90;;;;;;4957685;28;20462;-66
2021/07/09 09:06:42;;;;;;;7.53;7.00;;;20.90;99.90;;;;;;4957678;28;20498;-66
2021/07/09 09:09:18;;;;;;;8.00;7.30;;;21.10;99.90;;;;;;4957325;28;20514;-66
2021/07/09 09:12:00;;;;;;;7.30;6.57;;;21.00;99.90;;;;;;4957343;28;20479;-66
2021/07/09 09:14:26;;;;;;;7.60;7.00;;;21.20;99.90;;;;;;4957834;28;20471;-66
2021/07/09 09:16:53;;;;;;;6.57;6.07;;;21.30;99.90;;;;;;4956997;28;20462;-66
2021/07/09 09:19:20;;;;;;;7.10;6.40;;;21.40;99.90;;;;;;4956861;28;20463;-66
2021/07/09 09:21:48;;;;;;;8.87;7.03;;;21.50;99.90;;;;;;4957119;28;20479;-66
2021/07/09 09:24:28;;;;;;;7.63;7.03;;;21.50;99.90;;;;;;4957403;28;20838;-66
2021/07/09 09:26:54;;;;;;;7.97;7.27;;;21.50;99.90;;;;;;4958989;28;20444;-66
2021/07/09 09:29:35;;;;;;;7.53;6.83;;;21.50;99.90;;;;;;4958748;28;20486;-66
2021/07/09 09:32:04;;;;;;;7.27;6.57;;;21.50;99.90;;;;;;4957281;28;20845;-67
2021/07/09 09:34:36;;;;;;;6.70;6.00;;;21.60;99.90;;;;;;4956888;28;20483;-63
2021/07/09 09:37:04;;;;;;;7.40;6.50;;;21.60;99.90;;;;;;4957176;28;20444;-64
2021/07/09 09:39:33;;;;;;;8.20;5.90;;;21.70;99.90;;;;;;4956494;28;20451;-64
2021/07/09 09:42:17;;;;;;;6.40;5.80;;;21.90;99.90;;;;;;4956213;28;20471;-66
2021/07/09 09:44:45;;;;;;;6.00;5.60;;;22.10;99.90;;;;;;4956632;28;20192;-67
2021/07/09 09:47:13;;;;;;;6.13;5.53;;;22.10;99.90;;;;;;4956715;28;20456;-66
2021/07/09 09:49:40;;;;;;;7.10;6.10;;;22.10;99.90;;;;;;4956651;28;20479;-67
2021/07/09 09:52:07;;;;;;;6.17;5.67;;;22.20;99.90;;;;;;4956460;28;20838;-67
2021/07/09 09:54:35;;;;;;;7.13;6.47;;;22.30;99.90;;;;;;4956587;28;20482;-67
2021/07/09 09:57:04;;;;;;;6.07;5.60;;;22.40;99.90;;;;;;4956629;28;20455;-67
2021/07/09 09:59:32;;;;;;;5.93;5.43;;;22.50;99.90;;;;;;4956015;28;20455;-66
2021/07/09 10:02:01;;;;;;;6.83;5.93;;;22.80;99.90;;;;;;4956325;28;20490;-67
2021/07/09 10:04:29;;;;;;;5.87;5.13;;;23.10;99.90;;;;;;4956287;28;20935;-66
2021/07/09 10:06:57;;;;;;;5.97;5.47;;;23.40;99.90;;;;;;4956482;28;20455;-66
2021/07/09 10:09:25;;;;;;;6.40;5.80;;;23.40;99.90;;;;;;4956324;28;20486;-67
2021/07/09 10:11:54;;;;;;;6.07;5.67;;;23.30;99.90;;;;;;4957451;28;20860;-67
2021/07/09 10:14:22;;;;;;;6.50;6.00;;;23.30;99.90;;;;;;4957058;28;20481;-67
2021/07/09 10:16:50;;;;;;;6.27;5.67;;;23.40;99.90;;;;;;4956213;28;20942;-66
2021/07/09 10:19:21;;;;;;;6.10;5.60;;;23.50;99.90;;;;;;4956280;28;20452;-66
2021/07/09 10:21:48;;;;;;;5.57;5.07;;;23.60;99.90;;;;;;4956277;28;20486;-67
2021/07/09 10:24:18;;;;;;;5.03;4.70;;;24.20;99.90;;;;;;4956794;28;20459;-67
2021/07/09 10:26:48;;;;;;;5.77;5.30;;;24.60;99.90;;;;;;4956301;28;20486;-67
2021/07/09 10:29:18;;;;;;;5.40;5.03;;;25.10;99.90;;;;;;4956254;28;20471;-66
2021/07/09 10:31:47;;;;;;;6.10;5.60;;;25.30;99.90;;;;;;4956524;28;20479;-66
2021/07/09 10:34:34;;;;;;;4.83;4.53;;;25.30;99.90;;;;;;4956630;28;20463;-67
2021/07/09 10:37:02;;;;;;;6.13;4.77;;;25.20;99.90;;;;;;4956820;28;20443;-67
2021/07/09 10:39:40;;;;;;;5.23;4.83;;;25.00;99.90;;;;;;4956736;28;20463;-67
2021/07/09 10:42:27;;;;;;;5.23;4.70;;;24.80;99.90;;;;;;4956370;28;20486;-67
2021/07/09 10:45:09;;;;;;;4.63;4.33;;;24.60;99.90;;;;;;4956727;28;20535;-67
2021/07/09 10:47:54;;;;;;;4.73;4.43;;;24.80;99.90;;;;;;4956415;28;20928;-67
2021/07/09 10:50:34;;;;;;;6.60;4.57;;;25.20;99.90;;;;;;4956340;28;20478;-67
2021/07/09 10:53:02;;;;;;;4.80;4.50;;;25.50;99.90;;;;;;4956558;28;20462;-67
2021/07/09 10:55:50;;;;;;;4.43;4.03;;;25.80;99.90;;;;;;4956368;28;20462;-66
2021/07/09 10:58:44;;;;;;;7.90;4.63;;;26.30;99.90;;;;;;4956051;28;20447;-67
2021/07/09 11:01:21;;;;;;;5.27;4.97;;;26.00;99.90;;;;;;4955749;28;20486;-67
2021/07/09 11:03:50;;;;;;;5.63;4.50;;;26.10;99.90;;;;;;4956007;28;21019;-67
2021/07/09 11:06:19;;;;;;;5.07;4.67;;;26.10;99.90;;;;;;4956184;28;20459;-67
2021/07/09 11:08:59;;;;;;;5.20;4.90;;;26.10;99.90;;;;;;4966231;28;20456;-67
2021/07/09 11:11:48;;;;;;;4.80;4.40;;;25.90;99.90;;;;;;4957568;28;20475;-67
2021/07/09 11:14:17;;;;;;;12.80;5.10;;;26.00;99.90;;;;;;4960056;28;20835;-67
2021/07/09 11:16:46;;;;;;;4.47;4.17;;;25.40;99.90;;;;;;4959640;28;20478;-67
2021/07/09 11:19:15;;;;;;;5.07;4.77;;;25.50;99.90;;;;;;4959343;28;20478;-68
2021/07/09 11:21:57;;;;;;;4.60;4.33;;;26.10;99.90;;;;;;4958813;28;20839;-67
2021/07/09 11:24:26;;;;;;;4.90;4.23;;;26.90;99.90;;;;;;4959332;28;20436;-67
2021/07/09 11:26:55;;;;;;;4.77;4.40;;;26.80;99.90;;;;;;4959224;28;20452;-67
2021/07/09 11:29:25;;;;;;;4.97;4.67;;;26.90;99.90;;;;;;4959334;28;20475;-67
2021/07/09 11:31:55;;;;;;;4.70;4.30;;;27.40;99.90;;;;;;4959063;28;20894;-67
2021/07/09 11:34:24;;;;;;;4.47;4.17;;;27.30;99.90;;;;;;4959102;28;20452;-68
2021/07/09 11:36:53;;;;;;;5.83;5.43;;;27.40;99.90;;;;;;4958792;28;20865;-67
2021/07/09 11:39:22;;;;;;;5.07;4.70;;;27.50;99.90;;;;;;4959108;28;20444;-67
2021/07/09 11:41:54;;;;;;;5.77;5.37;;;27.60;99.90;;;;;;4958781;28;21005;-67
2021/07/09 11:44:23;;;;;;;7.93;7.20;;;27.60;99.90;;;;;;4958839;28;20463;-67
2021/07/09 11:46:51;;;;;;;7.93;7.37;;;28.00;99.90;;;;;;4958625;28;20510;-68
2021/07/09 11:49:21;;;;;;;8.70;6.93;;;28.10;99.90;;;;;;4958757;28;20459;-67
2021/07/09 11:51:52;;;;;;;8.57;7.70;;;28.10;99.90;;;;;;4958890;28;20475;-68
2021/07/09 11:54:27;;;;;;;7.67;6.97;;;28.30;99.90;;;;;;4958473;28;20912;-67
2021/07/09 11:57:01;;;;;;;6.80;6.30;;;28.30;99.90;;;;;;4958923;28;20530;-67
2021/07/09 11:59:29;;;;;;;8.23;7.43;;;28.30;99.90;;;;;;4958478;28;20569;-66
2021/07/09 12:02:21;;;;;;;8.87;8.10;;;28.30;99.90;;;;;;4958126;28;21029;-67
2021/07/09 12:04:51;;;;;;;9.60;8.90;;;27.70;99.90;;;;;;4959051;28;20544;-67
2021/07/09 12:07:21;;;;;;;9.33;7.57;;;27.20;99.90;;;;;;4958461;28;20435;-68
2021/07/09 12:09:52;;;;;;;7.50;7.00;;;26.20;99.90;;;;;;4959076;28;20480;-67
2021/07/09 12:12:19;;;;;;;11.80;10.80;;;25.50;99.90;;;;;;4958868;28;20480;-67
2021/07/09 12:15:08;;;;;;;11.97;11.17;;;25.10;99.90;;;;;;4958387;28;20459;-67
2021/07/09 12:17:37;;;;;;;12.67;11.37;;;24.50;99.90;;;;;;4958632;28;20495;-67
2021/07/09 12:20:15;;;;;;;13.03;11.90;;;24.10;99.90;;;;;;4958400;28;20455;-67
2021/07/09 12:22:45;;;;;;;10.53;9.70;;;23.90;99.90;;;;;;4958365;28;20502;-67
2021/07/09 12:25:15;;;;;;;11.43;10.50;;;23.60;99.90;;;;;;4958542;28;20455;-67
2021/07/09 12:27:42;;;;;;;11.87;10.87;;;23.50;99.90;;;;;;4958648;28;20455;-68
2021/07/09 12:30:12;;;;;;;11.40;10.17;;;23.40;99.90;;;;;;4959360;28;20490;-67
2021/07/09 12:32:54;;;;;;;12.00;10.90;;;23.10;99.90;;;;;;4961361;28;20459;-68
2021/07/09 12:35:23;;;;;;;12.13;11.30;;;23.00;99.90;;;;;;4963442;28;20442;-67
2021/07/09 12:38:02;;;;;;;13.30;12.20;;;22.90;99.90;;;;;;4962933;28;20823;-67
2021/07/09 12:40:33;;;;;;;12.30;11.30;;;22.80;99.90;;;;;;4959061;28;20443;-67
2021/07/09 12:43:10;;;;;;;12.83;11.80;;;22.90;99.90;;;;;;4957741;28;20942;-67
2021/07/09 12:45:37;;;;;;;12.30;11.17;;;23.00;99.90;;;;;;4958271;28;20455;-68
2021/07/09 12:48:05;;;;;;;11.20;10.30;;;23.40;99.90;;;;;;4958049;28;20463;-66
2021/07/09 12:50:39;;;;;;;10.67;9.87;;;24.10;99.90;;;;;;4957376;28;20487;-67
2021/07/09 12:53:22;;;;;;;10.67;9.67;;;24.30;99.90;;;;;;4957749;28;20440;-68
2021/07/09 12:55:50;;;;;;;9.80;9.00;;;24.50;99.90;;;;;;4958620;28;20951;-67
2021/07/09 12:58:19;;;;;;;10.43;9.60;;;24.30;99.90;;;;;;4958217;28;20463;-67
2021/07/09 13:00:49;;;;;;;8.67;7.97;;;24.30;99.90;;;;;;4957849;28;20498;-67
2021/07/09 13:03:24;;;;;;;10.73;9.77;;;24.70;99.90;;;;;;4957614;28;20460;-66
2021/07/09 13:06:04;;;;;;;9.13;8.43;;;24.90;99.90;;;;;;4957534;28;20444;-67
2021/07/09 13:08:31;;;;;;;12.80;9.10;;;25.00;99.90;;;;;;4957253;28;20447;-67
2021/07/09 13:11:13;;;;;;;9.60;8.90;;;24.90;99.90;;;;;;4957422;28;20491;-67
2021/07/09 13:13:42;;;;;;;9.13;8.27;;;24.50;99.90;;;;;;4957159;28;20463;-67
2021/07/09 13:16:12;;;;;;;8.77;7.97;;;24.20;99.90;;;;;;4958147;28;20536;-68
2021/07/09 13:18:40;;;;;;;8.63;7.90;;;23.80;99.90;;;;;;4957837;28;20444;-66
2021/07/09 13:21:11;;;;;;;9.37;8.67;;;23.50;99.90;;;;;;4957428;28;20478;-66
2021/07/09 13:23:39;;;;;;;8.97;7.47;;;23.60;99.90;;;;;;4957298;28;20440;-66
2021/07/09 13:26:13;;;;;;;8.80;8.10;;;23.50;99.90;;;;;;4957075;28;20493;-67
2021/07/09 13:28:43;;;;;;;7.43;6.83;;;23.60;99.90;;;;;;4956969;28;20458;-67
2021/07/09 13:31:11;;;;;;;6.23;5.83;;;23.80;99.90;;;;;;4956690;28;21029;-67
2021/07/09 13:33:42;;;;;;;6.30;5.90;;;24.10;99.90;;;;;;4957382;28;20459;-67
2021/07/09 13:36:12;;;;;;;5.80;5.30;;;24.20;99.90;;;;;;4957665;28;20451;-67
2021/07/09 13:38:40;;;;;;;4.63;4.37;;;24.20;99.90;;;;;;4957523;28;20471;-67
2021/07/09 13:41:07;;;;;;;4.60;4.30;;;24.50;99.90;;;;;;4956741;28;20507;-67
2021/07/09 13:43:34;;;;;;;5.30;4.90;;;24.80;99.90;;;;;;4957977;28;20836;-67
2021/07/09 13:46:00;;;;;;;4.23;3.93;;;25.00;99.90;;;;;;4957395;28;20471;-68
2021/07/09 13:48:27;;;;;;;5.57;5.00;;;25.50;99.90;;;;;;4957898;28;20447;-67
2021/07/09 13:50:54;;;;;;;5.33;4.97;;;25.40;99.90;;;;;;4959764;28;20487;-67
2021/07/09 13:53:22;;;;;;;6.17;5.77;;;25.40;99.90;;;;;;4957286;28;20455;-67
2021/07/09 13:55:49;;;;;;;5.90;5.60;;;25.20;99.90;;;;;;4957246;28;20463;-68
2021/07/09 13:58:15;;;;;;;7.00;6.07;;;25.10;99.90;;;;;;4957296;28;20458;-67
2021/07/09 14:00:42;;;;;;;6.53;6.03;;;25.20;99.90;;;;;;4956622;28;20502;-67
2021/07/09 14:03:09;;;;;;;6.93;6.30;;;25.40;99.90;;;;;;4957123;28;20503;-68
2021/07/09 14:05:36;;;;;;;6.67;6.10;;;25.50;99.90;;;;;;4957259;28;20462;-66
2021/07/09 14:08:04;;;;;;;7.93;7.23;;;25.40;99.90;;;;;;4961041;28;20443;-67
2021/07/09 14:10:32;;;;;;;7.90;6.60;;;25.10;99.90;;;;;;4968396;28;20475;-67
2021/07/09 14:12:59;;;;;;;8.00;7.40;;;24.70;99.90;;;;;;4957535;28;20455;-67
2021/07/09 14:15:26;;;;;;;7.73;7.13;;;24.40;99.90;;;;;;4956686;28;20950;-67
2021/07/09 14:17:53;;;;;;;6.00;5.50;;;23.90;99.90;;;;;;4956712;28;20451;-67
2021/07/09 14:20:22;;;;;;;5.53;5.10;;;23.60;99.90;;;;;;4956645;28;20460;-67
2021/07/09 14:22:49;;;;;;;4.50;4.10;;;23.10;99.90;;;;;;4957166;28;20455;-67
2021/07/09 14:25:15;;;;;;;3.80;3.60;;;22.90;99.90;;;;;;4956588;28;20459;-67
2021/07/09 14:27:43;;;;;;;3.80;3.60;;;22.80;99.90;;;;;;4956713;28;20467;-67
2021/07/09 14:30:12;;;;;;;3.77;3.57;;;22.80;99.90;;;;;;4956535;28;20463;-67
2021/07/09 14:32:39;;;;;;;3.47;3.00;;;22.60;99.90;;;;;;4956601;28;20475;-67
2021/07/09 14:35:07;;;;;;;3.90;3.60;;;22.50;99.90;;;;;;4956085;28;20506;-67
2021/07/09 14:37:33;;;;;;;3.20;3.10;;;22.40;99.90;;;;;;4955939;28;20455;-66
2021/07/09 14:40:00;;;;;;;2.70;2.60;;;22.30;99.90;;;;;;4956211;28;20455;-67
2021/07/09 14:42:27;;;;;;;3.10;3.00;;;22.20;99.90;;;;;;4956197;28;20877;-67
2021/07/09 14:44:55;;;;;;;2.90;2.80;;;22.30;99.90;;;;;;4956372;28;20443;-67
2021/07/09 14:47:21;;;;;;;3.27;3.07;;;22.10;99.90;;;;;;4959459;28;20455;-66
2021/07/09 14:49:48;;;;;;;3.17;2.97;;;22.10;99.90;;;;;;4960562;28;20466;-67
2021/07/09 14:52:15;;;;;;;2.90;2.80;;;22.00;99.90;;;;;;4959706;28;20483;-67
2021/07/09 14:54:42;;;;;;;3.63;3.33;;;21.90;99.90;;;;;;4959999;28;20466;-66
2021/07/09 14:57:09;;;;;;;4.70;4.40;;;21.90;99.90;;;;;;4960926;28;20961;-66
2021/07/09 14:59:36;;;;;;;4.90;4.60;;;22.00;99.90;;;;;;4961031;28;20494;-67
2021/07/09 15:02:04;;;;;;;4.67;4.37;;;22.10;99.90;;;;;;4959722;28;21010;-67
2021/07/09 15:04:31;;;;;;;5.53;5.23;;;22.10;99.90;;;;;;4960045;28;20455;-66
2021/07/09 15:07:00;;;;;;;5.60;5.20;;;22.20;99.90;;;;;;4960820;28;20459;-67
2021/07/09 15:09:27;;;;;;;5.60;5.10;;;22.30;99.90;;;;;;4959963;28;20459;-67
2021/07/09 15:11:54;;;;;;;6.97;6.30;;;22.50;99.90;;;;;;4959709;28;20541;-67
2021/07/09 15:14:20;;;;;;;6.37;5.80;;;22.60;99.90;;;;;;4960135;28;20482;-66
2021/07/09 15:16:47;;;;;;;8.50;6.90;;;23.00;99.90;;;;;;4959306;28;20459;-67
2021/07/09 15:19:15;;;;;;;7.23;6.77;;;23.10;99.90;;;;;;4959839;28;20459;-67
2021/07/09 15:21:42;;;;;;;7.77;7.07;;;23.40;99.90;;;;;;4959495;28;20837;-67
2021/07/09 15:24:08;;;;;;;7.73;7.17;;;23.50;99.90;;;;;;4959897;28;20467;-67
2021/07/09 15:26:35;;;;;;;6.97;6.50;;;23.60;99.90;;;;;;4959634;28;20858;-67
2021/07/09 15:29:02;;;;;;;6.80;6.30;;;23.50;99.90;;;;;;4959829;28;20463;-68
2021/07/09 15:31:28;;;;;;;7.00;6.50;;;23.40;99.90;;;;;;4960150;28;20579;-67
2021/07/09 15:33:55;;;;;;;7.80;7.20;;;23.40;99.90;;;;;;4959834;28;20455;-66
2021/07/09 15:36:23;;;;;;;7.77;7.27;;;23.40;99.90;;;;;;4961236;28;20463;-66
2021/07/09 15:38:50;;;;;;;8.47;7.67;;;23.30;99.90;;;;;;4960542;28;20970;-67
2021/07/09 15:41:16;;;;;;;9.20;8.33;;;23.20;99.90;;;;;;4972519;28;20471;-66
2021/07/09 15:43:43;;;;;;;9.30;8.60;;;23.00;99.90;;;;;;4959041;28;20958;-68
2021/07/09 15:46:10;;;;;;;8.80;8.07;;;22.80;99.90;;;;;;4959558;28;20467;-67
2021/07/09 15:48:37;;;;;;;9.23;8.53;;;22.70;99.90;;;;;;4959395;28;20823;-68
2021/07/09 15:51:04;;;;;;;8.73;8.10;;;22.70;99.90;;;;;;4962235;28;21005;-66
2021/07/09 15:53:32;;;;;;;8.47;7.90;;;22.60;99.90;;;;;;4959309;28;20459;-67
2021/07/09 15:55:59;;;;;;;9.40;8.70;;;22.50;99.90;;;;;;4959106;28;20462;-66
2021/07/09 15:58:26;;;;;;;8.40;7.87;;;22.60;99.90;;;;;;4959007;28;20943;-67
2021/07/09 16:00:53;;;;;;;9.40;8.70;;;22.60;99.90;;;;;;4958427;28;20487;-67
2021/07/09 16:03:20;;;;;;;8.60;8.00;;;22.70;99.90;;;;;;4958747;28;20462;-67
2021/07/09 16:05:47;;;;;;;9.17;8.57;;;22.70;99.90;;;;;;4959239;28;20460;-67
2021/07/09 16:08:14;;;;;;;9.17;8.47;;;22.90;99.90;;;;;;4958402;28;20467;-66
2021/07/09 16:10:42;;;;;;;9.07;8.17;;;22.80;99.90;;;;;;4958474;28;20475;-68
2021/07/09 16:13:09;;;;;;;8.83;8.30;;;22.80;99.90;;;;;;4958932;28;20966;-67
2021/07/09 16:15:36;;;;;;;10.13;9.13;;;22.90;99.90;;;;;;4959696;28;20466;-67
2021/07/09 16:18:03;;;;;;;9.60;9.00;;;22.90;99.90;;;;;;4959277;28;20801;-66
2021/07/09 16:20:30;;;;;;;10.63;9.83;;;22.90;99.90;;;;;;4958277;28;20452;-66
2021/07/09 16:22:57;;;;;;;11.30;10.10;;;22.80;99.90;;;;;;4958991;28;20448;-67
2021/07/09 16:25:24;;;;;;;10.00;9.30;;;22.70;99.90;;;;;;4958771;28;20455;-67
2021/07/09 16:27:52;;;;;;;9.43;8.73;;;22.60;99.90;;;;;;4958178;28;20965;-67
2021/07/09 16:30:19;;;;;;;7.20;6.70;;;22.70;99.90;;;;;;4958290;28;20467;-67
2021/07/09 16:32:46;;;;;;;9.03;7.53;;;22.70;99.90;;;;;;4958372;28;21015;-67
2021/07/09 16:35:13;;;;;;;6.30;5.80;;;22.70;99.90;;;;;;4970279;28;20448;-66
2021/07/09 16:37:39;;;;;;;5.50;5.20;;;22.70;99.90;;;;;;4958629;28;20460;-67
2021/07/09 16:40:07;;;;;;;6.30;5.80;;;22.60;99.90;;;;;;4957928;28;20463;-66
2021/07/09 16:42:34;;;;;;;5.40;5.00;;;22.60;99.90;;;;;;4957806;28;20539;-67
2021/07/09 16:45:02;;;;;;;5.10;4.90;;;22.70;99.90;;;;;;4958086;28;20455;-66
2021/07/09 16:47:28;;;;;;;4.77;4.47;;;22.70;99.90;;;;;;4957843;28;20967;-66
2021/07/09 16:49:55;;;;;;;4.67;4.37;;;22.70;99.90;;;;;;4958255;28;20818;-66
2021/07/09 16:52:23;;;;;;;4.60;4.30;;;22.80;99.90;;;;;;4958489;28;20484;-66
2021/07/09 16:54:50;;;;;;;4.43;4.13;;;22.80;99.90;;;;;;4957312;28;20466;-67